sensor_id;sensor_type;location;lat;lon;timestamp;P1;durP1;ratioP1;P2;durP2;ratioP2
13698;SDS011;6921;53.642;9.956;2023-02-01T00:00:37;16.00;;;3.40;;
13698;SDS011;6921;53.642;9.956;2023-02-01T00:02:40;13.27;;;3.80;;
13698;SDS011;6921;53.642;9.956;2023-02-01T00:04:43;18.27;;;3.37;;
13698;SDS011;6921;53.642;9.956;2023-02-01T00:06:47;19.23;;;3.13;;
13698;SDS011;6921;53.642;9.956;2023-02-01T00:08:52;16.93;;;3.10;;
13698;SDS011;6921;53.642;9.956;2023-02-01T00:10:58;18.43;;;3.70;;
13698;SDS011;6921;53.642;9.956;2023-02-01T00:13:03;14.57;;;3.50;;
13698;SDS011;6921;53.642;9.956;2023-02-01T00:15:07;22.37;;;3.57;;
13698;SDS011;6921;53.642;9.956;2023-02-01T00:17:11;19.80;;;4.00;;
13698;SDS011;6921;53.642;9.956;2023-02-01T00:19:14;19.67;;;3.87;;
13698;SDS011;6921;53.642;9.956;2023-02-01T00:21:18;21.73;;;4.20;;
13698;SDS011;6921;53.642;9.956;2023-02-01T00:23:22;23.20;;;4.17;;
13698;SDS011;6921;53.642;9.956;2023-02-01T00:25:25;19.67;;;3.90;;
13698;SDS011;6921;53.642;9.956;2023-02-01T00:27:28;23.47;;;4.10;;
13698;SDS011;6921;53.642;9.956;2023-02-01T00:29:33;21.00;;;3.63;;
13698;SDS011;6921;53.642;9.956;2023-02-01T00:31:37;20.30;;;4.13;;
13698;SDS011;6921;53.642;9.956;2023-02-01T00:33:40;21.13;;;4.30;;
13698;SDS011;6921;53.642;9.956;2023-02-01T00:35:43;14.50;;;3.60;;
13698;SDS011;6921;53.642;9.956;2023-02-01T00:37:46;25.40;;;3.53;;
13698;SDS011;6921;53.642;9.956;2023-02-01T00:39:50;21.93;;;4.23;;
13698;SDS011;6921;53.642;9.956;2023-02-01T00:41:56;15.43;;;3.37;;
13698;SDS011;6921;53.642;9.956;2023-02-01T00:43:59;13.47;;;3.63;;
13698;SDS011;6921;53.642;9.956;2023-02-01T00:46:04;16.27;;;3.90;;
13698;SDS011;6921;53.642;9.956;2023-02-01T00:48:07;17.00;;;3.37;;
13698;SDS011;6921;53.642;9.956;2023-02-01T00:50:10;19.33;;;3.83;;
13698;SDS011;6921;53.642;9.956;2023-02-01T00:52:14;23.47;;;4.23;;
13698;SDS011;6921;53.642;9.956;2023-02-01T00:54:17;17.53;;;3.90;;
13698;SDS011;6921;53.642;9.956;2023-02-01T00:56:20;18.03;;;3.30;;
13698;SDS011;6921;53.642;9.956;2023-02-01T00:58:23;26.00;;;4.33;;
13698;SDS011;6921;53.642;9.956;2023-02-01T01:00:27;18.43;;;3.43;;
13698;SDS011;6921;53.642;9.956;2023-02-01T01:02:31;28.10;;;4.20;;
13698;SDS011;6921;53.642;9.956;2023-02-01T01:04:35;24.07;;;4.40;;
13698;SDS011;6921;53.642;9.956;2023-02-01T01:06:38;18.60;;;3.97;;
13698;SDS011;6921;53.642;9.956;2023-02-01T01:08:42;20.37;;;4.30;;
13698;SDS011;6921;53.642;9.956;2023-02-01T01:10:45;24.93;;;4.60;;
13698;SDS011;6921;53.642;9.956;2023-02-01T01:12:48;24.63;;;5.20;;
13698;SDS011;6921;53.642;9.956;2023-02-01T01:14:52;24.37;;;4.57;;
13698;SDS011;6921;53.642;9.956;2023-02-01T01:16:55;26.03;;;4.17;;
13698;SDS011;6921;53.642;9.956;2023-02-01T01:19:00;27.67;;;4.77;;
13698;SDS011;6921;53.642;9.956;2023-02-01T01:21:04;25.20;;;4.70;;
13698;SDS011;6921;53.642;9.956;2023-02-01T01:23:08;21.77;;;3.90;;
13698;SDS011;6921;53.642;9.956;2023-02-01T01:25:11;24.13;;;4.23;;
13698;SDS011;6921;53.642;9.956;2023-02-01T01:27:14;20.27;;;3.93;;
13698;SDS011;6921;53.642;9.956;2023-02-01T01:29:24;24.40;;;4.97;;
13698;SDS011;6921;53.642;9.956;2023-02-01T01:31:27;25.77;;;4.23;;
13698;SDS011;6921;53.642;9.956;2023-02-01T01:33:31;22.67;;;4.00;;
13698;SDS011;6921;53.642;9.956;2023-02-01T01:35:36;21.37;;;5.13;;
13698;SDS011;6921;53.642;9.956;2023-02-01T01:37:39;29.37;;;5.23;;
13698;SDS011;6921;53.642;9.956;2023-02-01T01:39:43;24.00;;;4.60;;
13698;SDS011;6921;53.642;9.956;2023-02-01T01:41:46;22.97;;;5.00;;
13698;SDS011;6921;53.642;9.956;2023-02-01T01:43:51;22.93;;;3.97;;
13698;SDS011;6921;53.642;9.956;2023-02-01T01:45:54;24.70;;;4.87;;
13698;SDS011;6921;53.642;9.956;2023-02-01T01:47:58;16.90;;;3.87;;
13698;SDS011;6921;53.642;9.956;2023-02-01T01:50:03;22.77;;;4.27;;
13698;SDS011;6921;53.642;9.956;2023-02-01T01:52:08;20.83;;;5.13;;
13698;SDS011;6921;53.642;9.956;2023-02-01T01:54:12;18.43;;;4.07;;
13698;SDS011;6921;53.642;9.956;2023-02-01T01:56:18;20.03;;;4.03;;
13698;SDS011;6921;53.642;9.956;2023-02-01T01:58:22;22.20;;;3.90;;
13698;SDS011;6921;53.642;9.956;2023-02-01T02:00:26;20.20;;;3.93;;
13698;SDS011;6921;53.642;9.956;2023-02-01T02:02:29;17.13;;;3.77;;
13698;SDS011;6921;53.642;9.956;2023-02-01T02:04:33;28.17;;;4.30;;
13698;SDS011;6921;53.642;9.956;2023-02-01T02:06:39;22.27;;;4.67;;
13698;SDS011;6921;53.642;9.956;2023-02-01T02:08:46;19.60;;;3.93;;
13698;SDS011;6921;53.642;9.956;2023-02-01T02:10:50;26.17;;;4.30;;
13698;SDS011;6921;53.642;9.956;2023-02-01T02:13:02;26.13;;;4.70;;
13698;SDS011;6921;53.642;9.956;2023-02-01T02:15:06;21.07;;;4.17;;
13698;SDS011;6921;53.642;9.956;2023-02-01T02:17:13;28.27;;;5.47;;
13698;SDS011;6921;53.642;9.956;2023-02-01T02:19:29;27.80;;;5.50;;
13698;SDS011;6921;53.642;9.956;2023-02-01T02:21:42;22.43;;;4.43;;
13698;SDS011;6921;53.642;9.956;2023-02-01T02:26:18;24.77;;;4.50;;
13698;SDS011;6921;53.642;9.956;2023-02-01T02:30:56;34.20;;;5.60;;
13698;SDS011;6921;53.642;9.956;2023-02-01T02:36:01;23.17;;;4.60;;
13698;SDS011;6921;53.642;9.956;2023-02-01T02:38:12;17.70;;;3.77;;
13698;SDS011;6921;53.642;9.956;2023-02-01T02:40:17;29.43;;;4.97;;
13698;SDS011;6921;53.642;9.956;2023-02-01T02:42:25;28.57;;;4.90;;
13698;SDS011;6921;53.642;9.956;2023-02-01T02:44:48;23.67;;;4.30;;
13698;SDS011;6921;53.642;9.956;2023-02-01T02:47:11;22.27;;;4.63;;
13698;SDS011;6921;53.642;9.956;2023-02-01T02:49:32;20.37;;;4.33;;
13698;SDS011;6921;53.642;9.956;2023-02-01T02:51:38;25.63;;;4.67;;
13698;SDS011;6921;53.642;9.956;2023-02-01T02:54:02;14.67;;;3.40;;
13698;SDS011;6921;53.642;9.956;2023-02-01T02:56:25;20.90;;;4.47;;
13698;SDS011;6921;53.642;9.956;2023-02-01T02:58:47;25.90;;;4.40;;
13698;SDS011;6921;53.642;9.956;2023-02-01T03:01:08;21.77;;;4.30;;
13698;SDS011;6921;53.642;9.956;2023-02-01T03:03:29;24.17;;;4.47;;
13698;SDS011;6921;53.642;9.956;2023-02-01T03:05:52;23.70;;;4.57;;
13698;SDS011;6921;53.642;9.956;2023-02-01T03:07:57;21.50;;;4.40;;
13698;SDS011;6921;53.642;9.956;2023-02-01T03:10:05;22.13;;;3.80;;
13698;SDS011;6921;53.642;9.956;2023-02-01T03:12:10;20.10;;;3.57;;
13698;SDS011;6921;53.642;9.956;2023-02-01T03:14:33;19.40;;;3.77;;
13698;SDS011;6921;53.642;9.956;2023-02-01T03:16:40;24.33;;;3.97;;
13698;SDS011;6921;53.642;9.956;2023-02-01T03:18:46;27.10;;;4.80;;
13698;SDS011;6921;53.642;9.956;2023-02-01T03:20:52;21.77;;;3.67;;
13698;SDS011;6921;53.642;9.956;2023-02-01T03:22:59;19.93;;;3.63;;
13698;SDS011;6921;53.642;9.956;2023-02-01T03:25:04;23.83;;;4.17;;
13698;SDS011;6921;53.642;9.956;2023-02-01T03:27:10;21.60;;;3.83;;
13698;SDS011;6921;53.642;9.956;2023-02-01T03:29:16;22.67;;;3.67;;
13698;SDS011;6921;53.642;9.956;2023-02-01T03:31:21;21.97;;;4.07;;
13698;SDS011;6921;53.642;9.956;2023-02-01T03:33:25;21.77;;;4.20;;
13698;SDS011;6921;53.642;9.956;2023-02-01T03:35:32;25.37;;;4.47;;
13698;SDS011;6921;53.642;9.956;2023-02-01T03:37:37;20.57;;;4.03;;
13698;SDS011;6921;53.642;9.956;2023-02-01T03:39:41;19.20;;;3.83;;
13698;SDS011;6921;53.642;9.956;2023-02-01T03:41:47;15.53;;;3.63;;
13698;SDS011;6921;53.642;9.956;2023-02-01T03:43:52;15.63;;;3.40;;
13698;SDS011;6921;53.642;9.956;2023-02-01T03:45:59;18.43;;;3.57;;
13698;SDS011;6921;53.642;9.956;2023-02-01T03:48:03;13.60;;;3.07;;
13698;SDS011;6921;53.642;9.956;2023-02-01T03:50:07;23.80;;;4.40;;
13698;SDS011;6921;53.642;9.956;2023-02-01T03:52:13;19.73;;;3.60;;
13698;SDS011;6921;53.642;9.956;2023-02-01T03:54:19;17.53;;;3.70;;
13698;SDS011;6921;53.642;9.956;2023-02-01T03:56:22;21.47;;;3.60;;
13698;SDS011;6921;53.642;9.956;2023-02-01T03:58:27;18.10;;;3.83;;
13698;SDS011;6921;53.642;9.956;2023-02-01T04:00:30;17.77;;;3.27;;
13698;SDS011;6921;53.642;9.956;2023-02-01T04:02:33;20.13;;;3.50;;
13698;SDS011;6921;53.642;9.956;2023-02-01T04:04:37;16.30;;;3.23;;
13698;SDS011;6921;53.642;9.956;2023-02-01T04:06:40;21.40;;;3.87;;
13698;SDS011;6921;53.642;9.956;2023-02-01T04:08:43;19.53;;;3.40;;
13698;SDS011;6921;53.642;9.956;2023-02-01T04:10:48;24.47;;;3.83;;
13698;SDS011;6921;53.642;9.956;2023-02-01T04:12:51;21.80;;;3.87;;
13698;SDS011;6921;53.642;9.956;2023-02-01T04:14:55;20.43;;;3.87;;
13698;SDS011;6921;53.642;9.956;2023-02-01T04:16:59;22.27;;;4.00;;
13698;SDS011;6921;53.642;9.956;2023-02-01T04:19:02;23.93;;;4.50;;
13698;SDS011;6921;53.642;9.956;2023-02-01T04:21:05;18.20;;;3.73;;
13698;SDS011;6921;53.642;9.956;2023-02-01T04:23:09;20.53;;;3.57;;
13698;SDS011;6921;53.642;9.956;2023-02-01T04:25:12;18.30;;;3.47;;
13698;SDS011;6921;53.642;9.956;2023-02-01T04:27:16;21.87;;;4.37;;
13698;SDS011;6921;53.642;9.956;2023-02-01T04:29:20;20.63;;;3.77;;
13698;SDS011;6921;53.642;9.956;2023-02-01T04:31:23;17.67;;;3.50;;
13698;SDS011;6921;53.642;9.956;2023-02-01T04:33:28;22.93;;;4.23;;
13698;SDS011;6921;53.642;9.956;2023-02-01T04:35:31;21.47;;;3.47;;
13698;SDS011;6921;53.642;9.956;2023-02-01T04:37:35;17.63;;;3.13;;
13698;SDS011;6921;53.642;9.956;2023-02-01T04:39:38;18.77;;;4.23;;
13698;SDS011;6921;53.642;9.956;2023-02-01T04:41:41;19.53;;;3.67;;
13698;SDS011;6921;53.642;9.956;2023-02-01T04:43:46;16.03;;;3.20;;
13698;SDS011;6921;53.642;9.956;2023-02-01T04:45:50;17.97;;;3.23;;
13698;SDS011;6921;53.642;9.956;2023-02-01T04:47:55;22.37;;;3.80;;
13698;SDS011;6921;53.642;9.956;2023-02-01T04:49:58;8.60;;;2.47;;
13698;SDS011;6921;53.642;9.956;2023-02-01T04:52:01;13.77;;;2.53;;
13698;SDS011;6921;53.642;9.956;2023-02-01T04:54:05;13.67;;;2.77;;
13698;SDS011;6921;53.642;9.956;2023-02-01T04:56:08;10.97;;;2.67;;
13698;SDS011;6921;53.642;9.956;2023-02-01T04:58:12;11.40;;;2.63;;
13698;SDS011;6921;53.642;9.956;2023-02-01T05:00:17;12.70;;;2.43;;
13698;SDS011;6921;53.642;9.956;2023-02-01T05:02:21;11.30;;;2.30;;
13698;SDS011;6921;53.642;9.956;2023-02-01T05:04:24;11.63;;;2.40;;
13698;SDS011;6921;53.642;9.956;2023-02-01T05:06:27;13.27;;;3.00;;
13698;SDS011;6921;53.642;9.956;2023-02-01T05:08:31;8.17;;;2.20;;
13698;SDS011;6921;53.642;9.956;2023-02-01T05:10:34;7.80;;;2.00;;
13698;SDS011;6921;53.642;9.956;2023-02-01T05:12:37;11.50;;;2.50;;
13698;SDS011;6921;53.642;9.956;2023-02-01T05:14:58;6.03;;;2.00;;
13698;SDS011;6921;53.642;9.956;2023-02-01T05:17:03;3.67;;;1.20;;
13698;SDS011;6921;53.642;9.956;2023-02-01T05:19:06;6.23;;;1.50;;
13698;SDS011;6921;53.642;9.956;2023-02-01T05:21:10;8.63;;;1.30;;
13698;SDS011;6921;53.642;9.956;2023-02-01T05:23:13;6.07;;;1.63;;
13698;SDS011;6921;53.642;9.956;2023-02-01T05:25:16;6.50;;;1.23;;
13698;SDS011;6921;53.642;9.956;2023-02-01T05:27:20;4.93;;;1.43;;
13698;SDS011;6921;53.642;9.956;2023-02-01T05:29:23;3.87;;;1.33;;
13698;SDS011;6921;53.642;9.956;2023-02-01T05:31:26;6.60;;;1.23;;
13698;SDS011;6921;53.642;9.956;2023-02-01T05:33:31;3.43;;;1.10;;
13698;SDS011;6921;53.642;9.956;2023-02-01T05:35:34;1.77;;;0.70;;
13698;SDS011;6921;53.642;9.956;2023-02-01T05:37:38;2.90;;;0.93;;
13698;SDS011;6921;53.642;9.956;2023-02-01T05:39:41;4.77;;;1.00;;
13698;SDS011;6921;53.642;9.956;2023-02-01T05:41:44;4.23;;;0.97;;
13698;SDS011;6921;53.642;9.956;2023-02-01T05:43:49;4.63;;;1.20;;
13698;SDS011;6921;53.642;9.956;2023-02-01T05:45:52;3.37;;;1.00;;
13698;SDS011;6921;53.642;9.956;2023-02-01T05:47:56;2.90;;;1.10;;
13698;SDS011;6921;53.642;9.956;2023-02-01T05:50:01;5.63;;;1.30;;
13698;SDS011;6921;53.642;9.956;2023-02-01T05:52:04;2.73;;;0.80;;
13698;SDS011;6921;53.642;9.956;2023-02-01T05:54:08;2.97;;;0.70;;
13698;SDS011;6921;53.642;9.956;2023-02-01T05:56:12;6.57;;;0.80;;
13698;SDS011;6921;53.642;9.956;2023-02-01T05:58:15;2.77;;;0.80;;
13698;SDS011;6921;53.642;9.956;2023-02-01T06:00:19;2.40;;;0.60;;
13698;SDS011;6921;53.642;9.956;2023-02-01T06:02:22;2.83;;;1.10;;
13698;SDS011;6921;53.642;9.956;2023-02-01T06:04:26;2.93;;;1.13;;
13698;SDS011;6921;53.642;9.956;2023-02-01T06:06:31;1.90;;;0.90;;
13698;SDS011;6921;53.642;9.956;2023-02-01T06:08:34;2.10;;;0.70;;
13698;SDS011;6921;53.642;9.956;2023-02-01T06:10:37;2.30;;;1.00;;
13698;SDS011;6921;53.642;9.956;2023-02-01T06:12:41;3.50;;;1.40;;
13698;SDS011;6921;53.642;9.956;2023-02-01T06:14:45;3.33;;;1.27;;
13698;SDS011;6921;53.642;9.956;2023-02-01T06:16:49;2.53;;;1.10;;
13698;SDS011;6921;53.642;9.956;2023-02-01T06:18:52;4.13;;;1.27;;
13698;SDS011;6921;53.642;9.956;2023-02-01T06:20:56;5.63;;;1.53;;
13698;SDS011;6921;53.642;9.956;2023-02-01T06:23:02;5.90;;;1.50;;
13698;SDS011;6921;53.642;9.956;2023-02-01T06:25:07;6.40;;;1.43;;
13698;SDS011;6921;53.642;9.956;2023-02-01T06:27:11;4.33;;;0.93;;
13698;SDS011;6921;53.642;9.956;2023-02-01T06:29:14;4.03;;;1.03;;
13698;SDS011;6921;53.642;9.956;2023-02-01T06:31:17;4.10;;;1.60;;
13698;SDS011;6921;53.642;9.956;2023-02-01T06:33:21;8.57;;;1.27;;
13698;SDS011;6921;53.642;9.956;2023-02-01T06:35:24;8.17;;;1.57;;
13698;SDS011;6921;53.642;9.956;2023-02-01T06:37:27;10.17;;;1.63;;
13698;SDS011;6921;53.642;9.956;2023-02-01T06:39:33;8.50;;;1.70;;
13698;SDS011;6921;53.642;9.956;2023-02-01T06:41:36;6.80;;;2.10;;
13698;SDS011;6921;53.642;9.956;2023-02-01T06:43:40;6.10;;;1.80;;
13698;SDS011;6921;53.642;9.956;2023-02-01T06:45:43;5.43;;;1.90;;
13698;SDS011;6921;53.642;9.956;2023-02-01T06:47:46;13.90;;;1.87;;
13698;SDS011;6921;53.642;9.956;2023-02-01T06:49:49;11.43;;;2.23;;
13698;SDS011;6921;53.642;9.956;2023-02-01T06:51:53;8.57;;;2.07;;
13698;SDS011;6921;53.642;9.956;2023-02-01T06:53:56;17.50;;;2.53;;
13698;SDS011;6921;53.642;9.956;2023-02-01T06:56:01;13.57;;;1.97;;
13698;SDS011;6921;53.642;9.956;2023-02-01T06:58:05;13.27;;;3.10;;
13698;SDS011;6921;53.642;9.956;2023-02-01T07:00:09;12.93;;;2.50;;
13698;SDS011;6921;53.642;9.956;2023-02-01T07:02:12;13.03;;;2.87;;
13698;SDS011;6921;53.642;9.956;2023-02-01T07:04:15;13.17;;;2.57;;
13698;SDS011;6921;53.642;9.956;2023-02-01T07:06:19;22.43;;;3.07;;
13698;SDS011;6921;53.642;9.956;2023-02-01T07:08:22;11.63;;;3.03;;
13698;SDS011;6921;53.642;9.956;2023-02-01T07:10:25;11.93;;;2.47;;
13698;SDS011;6921;53.642;9.956;2023-02-01T07:12:30;18.57;;;3.13;;
13698;SDS011;6921;53.642;9.956;2023-02-01T07:14:33;16.83;;;2.63;;
13698;SDS011;6921;53.642;9.956;2023-02-01T07:16:37;11.73;;;2.63;;
13698;SDS011;6921;53.642;9.956;2023-02-01T07:18:40;13.50;;;3.23;;
13698;SDS011;6921;53.642;9.956;2023-02-01T07:20:43;16.60;;;3.03;;
13698;SDS011;6921;53.642;9.956;2023-02-01T07:22:54;12.13;;;2.50;;
13698;SDS011;6921;53.642;9.956;2023-02-01T07:24:57;13.13;;;3.10;;
13698;SDS011;6921;53.642;9.956;2023-02-01T07:27:00;20.33;;;4.27;;
13698;SDS011;6921;53.642;9.956;2023-02-01T07:29:05;17.03;;;3.17;;
13698;SDS011;6921;53.642;9.956;2023-02-01T07:31:09;20.77;;;3.17;;
13698;SDS011;6921;53.642;9.956;2023-02-01T07:33:13;16.83;;;3.53;;
13698;SDS011;6921;53.642;9.956;2023-02-01T07:35:16;24.37;;;4.10;;
13698;SDS011;6921;53.642;9.956;2023-02-01T07:37:19;16.57;;;3.63;;
13698;SDS011;6921;53.642;9.956;2023-02-01T07:39:22;17.93;;;2.90;;
13698;SDS011;6921;53.642;9.956;2023-02-01T07:41:26;17.40;;;3.70;;
13698;SDS011;6921;53.642;9.956;2023-02-01T07:43:29;16.80;;;3.60;;
13698;SDS011;6921;53.642;9.956;2023-02-01T07:45:34;14.73;;;3.30;;
13698;SDS011;6921;53.642;9.956;2023-02-01T07:47:38;22.80;;;3.90;;
13698;SDS011;6921;53.642;9.956;2023-02-01T07:49:41;17.63;;;3.37;;
13698;SDS011;6921;53.642;9.956;2023-02-01T07:51:45;17.87;;;3.10;;
13698;SDS011;6921;53.642;9.956;2023-02-01T07:53:48;16.43;;;3.97;;
13698;SDS011;6921;53.642;9.956;2023-02-01T07:55:51;20.80;;;3.83;;
13698;SDS011;6921;53.642;9.956;2023-02-01T07:57:56;18.87;;;3.73;;
13698;SDS011;6921;53.642;9.956;2023-02-01T08:00:00;21.77;;;4.00;;
13698;SDS011;6921;53.642;9.956;2023-02-01T08:02:23;21.47;;;4.33;;
13698;SDS011;6921;53.642;9.956;2023-02-01T08:04:26;23.80;;;4.10;;
13698;SDS011;6921;53.642;9.956;2023-02-01T08:06:31;26.47;;;4.60;;
13698;SDS011;6921;53.642;9.956;2023-02-01T08:08:35;28.77;;;4.47;;
13698;SDS011;6921;53.642;9.956;2023-02-01T08:10:38;24.33;;;4.27;;
13698;SDS011;6921;53.642;9.956;2023-02-01T08:12:42;18.97;;;4.10;;
13698;SDS011;6921;53.642;9.956;2023-02-01T08:14:49;25.53;;;4.23;;
13698;SDS011;6921;53.642;9.956;2023-02-01T08:16:52;25.63;;;4.60;;
13698;SDS011;6921;53.642;9.956;2023-02-01T08:18:56;23.63;;;4.03;;
13698;SDS011;6921;53.642;9.956;2023-02-01T08:21:02;24.97;;;3.90;;
13698;SDS011;6921;53.642;9.956;2023-02-01T08:23:07;25.17;;;3.87;;
13698;SDS011;6921;53.642;9.956;2023-02-01T08:25:11;23.27;;;4.20;;
13698;SDS011;6921;53.642;9.956;2023-02-01T08:27:14;25.37;;;3.93;;
13698;SDS011;6921;53.642;9.956;2023-02-01T08:29:17;24.47;;;3.90;;
13698;SDS011;6921;53.642;9.956;2023-02-01T08:31:21;24.23;;;4.80;;
13698;SDS011;6921;53.642;9.956;2023-02-01T08:33:25;17.07;;;4.17;;
13698;SDS011;6921;53.642;9.956;2023-02-01T08:35:29;19.13;;;3.87;;
13698;SDS011;6921;53.642;9.956;2023-02-01T08:37:43;23.03;;;4.13;;
13698;SDS011;6921;53.642;9.956;2023-02-01T08:39:46;24.37;;;3.67;;
13698;SDS011;6921;53.642;9.956;2023-02-01T08:41:51;15.83;;;3.40;;
13698;SDS011;6921;53.642;9.956;2023-02-01T08:44:08;14.90;;;3.00;;
13698;SDS011;6921;53.642;9.956;2023-02-01T08:46:12;10.73;;;2.20;;
13698;SDS011;6921;53.642;9.956;2023-02-01T08:48:15;10.67;;;2.53;;
13698;SDS011;6921;53.642;9.956;2023-02-01T08:50:18;10.77;;;2.93;;
13698;SDS011;6921;53.642;9.956;2023-02-01T08:52:24;11.47;;;1.97;;
13698;SDS011;6921;53.642;9.956;2023-02-01T08:54:27;15.67;;;2.87;;
13698;SDS011;6921;53.642;9.956;2023-02-01T08:56:30;10.63;;;2.40;;
13698;SDS011;6921;53.642;9.956;2023-02-01T08:58:34;11.40;;;2.97;;
13698;SDS011;6921;53.642;9.956;2023-02-01T09:00:37;12.07;;;2.03;;
13698;SDS011;6921;53.642;9.956;2023-02-01T09:02:40;11.47;;;2.60;;
13698;SDS011;6921;53.642;9.956;2023-02-01T09:04:44;19.83;;;3.77;;
13698;SDS011;6921;53.642;9.956;2023-02-01T09:06:47;10.23;;;2.73;;
13698;SDS011;6921;53.642;9.956;2023-02-01T09:08:52;14.17;;;2.37;;
13698;SDS011;6921;53.642;9.956;2023-02-01T09:10:58;15.63;;;2.70;;
13698;SDS011;6921;53.642;9.956;2023-02-01T09:13:03;17.87;;;3.37;;
13698;SDS011;6921;53.642;9.956;2023-02-01T09:15:07;26.60;;;4.17;;
13698;SDS011;6921;53.642;9.956;2023-02-01T09:17:10;21.87;;;4.20;;
13698;SDS011;6921;53.642;9.956;2023-02-01T09:19:15;15.27;;;2.97;;
13698;SDS011;6921;53.642;9.956;2023-02-01T09:21:27;19.80;;;3.60;;
13698;SDS011;6921;53.642;9.956;2023-02-01T09:23:30;17.60;;;3.40;;
13698;SDS011;6921;53.642;9.956;2023-02-01T09:25:36;16.93;;;3.20;;
13698;SDS011;6921;53.642;9.956;2023-02-01T09:27:39;22.77;;;3.93;;
13698;SDS011;6921;53.642;9.956;2023-02-01T09:29:43;19.23;;;3.63;;
13698;SDS011;6921;53.642;9.956;2023-02-01T09:31:46;17.83;;;3.63;;
13698;SDS011;6921;53.642;9.956;2023-02-01T09:34:04;17.57;;;4.10;;
13698;SDS011;6921;53.642;9.956;2023-02-01T09:36:07;17.27;;;3.20;;
13698;SDS011;6921;53.642;9.956;2023-02-01T09:38:11;21.43;;;3.80;;
13698;SDS011;6921;53.642;9.956;2023-02-01T09:40:14;18.17;;;3.67;;
13698;SDS011;6921;53.642;9.956;2023-02-01T09:42:25;20.53;;;3.77;;
13698;SDS011;6921;53.642;9.956;2023-02-01T09:44:40;19.37;;;3.70;;
13698;SDS011;6921;53.642;9.956;2023-02-01T09:46:46;22.13;;;3.33;;
13698;SDS011;6921;53.642;9.956;2023-02-01T09:48:52;12.93;;;3.53;;
13698;SDS011;6921;53.642;9.956;2023-02-01T09:50:58;27.00;;;4.67;;
13698;SDS011;6921;53.642;9.956;2023-02-01T09:53:04;26.20;;;4.97;;
13698;SDS011;6921;53.642;9.956;2023-02-01T09:55:10;18.73;;;4.20;;
13698;SDS011;6921;53.642;9.956;2023-02-01T09:57:17;22.97;;;4.07;;
13698;SDS011;6921;53.642;9.956;2023-02-01T09:59:29;16.70;;;3.17;;
13698;SDS011;6921;53.642;9.956;2023-02-01T10:01:33;19.47;;;3.83;;
13698;SDS011;6921;53.642;9.956;2023-02-01T10:03:37;13.40;;;3.53;;
13698;SDS011;6921;53.642;9.956;2023-02-01T10:05:47;26.57;;;4.20;;
13698;SDS011;6921;53.642;9.956;2023-02-01T10:07:56;17.43;;;3.90;;
13698;SDS011;6921;53.642;9.956;2023-02-01T10:10:02;15.70;;;3.00;;
13698;SDS011;6921;53.642;9.956;2023-02-01T10:12:16;16.53;;;3.90;;
13698;SDS011;6921;53.642;9.956;2023-02-01T10:14:36;17.53;;;3.27;;
13698;SDS011;6921;53.642;9.956;2023-02-01T10:16:43;20.67;;;3.40;;
13698;SDS011;6921;53.642;9.956;2023-02-01T10:21:26;23.10;;;3.70;;
13698;SDS011;6921;53.642;9.956;2023-02-01T10:23:37;17.90;;;3.40;;
13698;SDS011;6921;53.642;9.956;2023-02-01T10:25:47;18.70;;;4.00;;
13698;SDS011;6921;53.642;9.956;2023-02-01T10:27:53;18.00;;;3.70;;
13698;SDS011;6921;53.642;9.956;2023-02-01T10:29:59;18.43;;;3.80;;
13698;SDS011;6921;53.642;9.956;2023-02-01T10:32:03;20.17;;;3.60;;
13698;SDS011;6921;53.642;9.956;2023-02-01T10:34:15;18.57;;;4.00;;
13698;SDS011;6921;53.642;9.956;2023-02-01T10:36:21;13.70;;;3.20;;
13698;SDS011;6921;53.642;9.956;2023-02-01T10:38:26;13.40;;;3.00;;
13698;SDS011;6921;53.642;9.956;2023-02-01T10:40:30;18.23;;;3.43;;
13698;SDS011;6921;53.642;9.956;2023-02-01T10:42:34;17.60;;;3.97;;
13698;SDS011;6921;53.642;9.956;2023-02-01T10:44:38;16.67;;;3.03;;
13698;SDS011;6921;53.642;9.956;2023-02-01T10:46:45;20.03;;;4.17;;
13698;SDS011;6921;53.642;9.956;2023-02-01T10:48:49;19.60;;;3.53;;
13698;SDS011;6921;53.642;9.956;2023-02-01T10:50:55;20.63;;;4.33;;
13698;SDS011;6921;53.642;9.956;2023-02-01T10:53:00;17.60;;;4.00;;
13698;SDS011;6921;53.642;9.956;2023-02-01T10:57:27;15.70;;;3.60;;
13698;SDS011;6921;53.642;9.956;2023-02-01T10:59:33;15.17;;;3.37;;
13698;SDS011;6921;53.642;9.956;2023-02-01T11:01:38;25.30;;;3.83;;
13698;SDS011;6921;53.642;9.956;2023-02-01T11:03:44;14.10;;;2.60;;
13698;SDS011;6921;53.642;9.956;2023-02-01T11:05:48;11.20;;;2.40;;
13698;SDS011;6921;53.642;9.956;2023-02-01T11:07:52;17.83;;;2.77;;
13698;SDS011;6921;53.642;9.956;2023-02-01T11:09:56;10.50;;;2.50;;
13698;SDS011;6921;53.642;9.956;2023-02-01T11:12:00;16.67;;;2.50;;
13698;SDS011;6921;53.642;9.956;2023-02-01T11:14:10;11.67;;;2.23;;
13698;SDS011;6921;53.642;9.956;2023-02-01T11:16:16;10.33;;;2.53;;
13698;SDS011;6921;53.642;9.956;2023-02-01T11:18:24;17.20;;;3.43;;
13698;SDS011;6921;53.642;9.956;2023-02-01T11:20:35;16.87;;;3.03;;
13698;SDS011;6921;53.642;9.956;2023-02-01T11:22:45;19.98;;;4.32;;
13698;SDS011;6921;53.642;9.956;2023-02-01T11:24:49;20.30;;;4.37;;
13698;SDS011;6921;53.642;9.956;2023-02-01T11:26:54;20.03;;;3.40;;
13698;SDS011;6921;53.642;9.956;2023-02-01T11:28:59;20.83;;;3.63;;
13698;SDS011;6921;53.642;9.956;2023-02-01T11:31:04;23.13;;;4.78;;
13698;SDS011;6921;53.642;9.956;2023-02-01T11:33:10;25.63;;;4.68;;
13698;SDS011;6921;53.642;9.956;2023-02-01T11:35:16;27.55;;;5.40;;
13698;SDS011;6921;53.642;9.956;2023-02-01T11:37:24;21.80;;;4.23;;
13698;SDS011;6921;53.642;9.956;2023-02-01T11:39:29;23.55;;;4.63;;
13698;SDS011;6921;53.642;9.956;2023-02-01T11:41:33;15.13;;;3.67;;
13698;SDS011;6921;53.642;9.956;2023-02-01T11:43:37;24.63;;;5.00;;
13698;SDS011;6921;53.642;9.956;2023-02-01T11:45:40;22.90;;;3.80;;
13698;SDS011;6921;53.642;9.956;2023-02-01T11:47:44;18.50;;;3.07;;
13698;SDS011;6921;53.642;9.956;2023-02-01T11:49:48;16.97;;;3.93;;
13698;SDS011;6921;53.642;9.956;2023-02-01T11:51:55;22.10;;;3.57;;
13698;SDS011;6921;53.642;9.956;2023-02-01T11:56:25;18.77;;;3.83;;
13698;SDS011;6921;53.642;9.956;2023-02-01T11:58:38;15.43;;;3.53;;
13698;SDS011;6921;53.642;9.956;2023-02-01T12:00:49;16.97;;;3.43;;
13698;SDS011;6921;53.642;9.956;2023-02-01T12:03:02;13.90;;;2.80;;
13698;SDS011;6921;53.642;9.956;2023-02-01T12:05:31;15.57;;;2.87;;
13698;SDS011;6921;53.642;9.956;2023-02-01T12:07:54;15.87;;;2.83;;
13698;SDS011;6921;53.642;9.956;2023-02-01T12:10:04;15.53;;;2.33;;
13698;SDS011;6921;53.642;9.956;2023-02-01T12:12:11;12.07;;;2.67;;
13698;SDS011;6921;53.642;9.956;2023-02-01T12:14:22;16.93;;;3.37;;
13698;SDS011;6921;53.642;9.956;2023-02-01T12:16:29;14.57;;;3.23;;
13698;SDS011;6921;53.642;9.956;2023-02-01T12:18:42;12.30;;;2.83;;
13698;SDS011;6921;53.642;9.956;2023-02-01T12:21:02;7.30;;;2.17;;
13698;SDS011;6921;53.642;9.956;2023-02-01T12:23:15;9.60;;;2.43;;
13698;SDS011;6921;53.642;9.956;2023-02-01T12:25:33;9.43;;;2.30;;
13698;SDS011;6921;53.642;9.956;2023-02-01T12:27:44;17.25;;;3.45;;
13698;SDS011;6921;53.642;9.956;2023-02-01T12:29:56;8.00;;;2.60;;
13698;SDS011;6921;53.642;9.956;2023-02-01T12:32:14;11.13;;;2.13;;
13698;SDS011;6921;53.642;9.956;2023-02-01T12:34:27;7.23;;;1.70;;
13698;SDS011;6921;53.642;9.956;2023-02-01T12:36:41;3.73;;;1.20;;
13698;SDS011;6921;53.642;9.956;2023-02-01T12:38:52;5.50;;;1.07;;
13698;SDS011;6921;53.642;9.956;2023-02-01T12:41:02;4.23;;;1.03;;
13698;SDS011;6921;53.642;9.956;2023-02-01T12:43:19;2.60;;;0.87;;
13698;SDS011;6921;53.642;9.956;2023-02-01T12:45:30;3.73;;;1.00;;
13698;SDS011;6921;53.642;9.956;2023-02-01T12:47:36;2.17;;;0.70;;
13698;SDS011;6921;53.642;9.956;2023-02-01T12:49:45;2.20;;;0.87;;
13698;SDS011;6921;53.642;9.956;2023-02-01T12:51:51;1.57;;;0.70;;
13698;SDS011;6921;53.642;9.956;2023-02-01T12:53:59;2.23;;;0.80;;
13698;SDS011;6921;53.642;9.956;2023-02-01T12:56:08;3.67;;;0.60;;